createdAt,value
2023-04-14T00:15:36.190Z,18.73
2023-04-14T00:40:50.923Z,18.43
2023-04-14T01:00:39.839Z,15.30
2023-04-14T01:31:35.804Z,19.50
2023-04-14T01:51:50.032Z,21.17
2023-04-14T02:22:09.814Z,22.27
2023-04-14T03:23:12.256Z,37.43
2023-04-14T03:58:08.863Z,28.83
2023-04-14T04:18:32.294Z,33.17
2023-04-14T04:53:53.610Z,54.37
2023-04-14T05:19:15.774Z,40.27
2023-04-14T05:40:14.535Z,35.30
2023-04-14T06:04:57.561Z,27.80
2023-04-14T06:30:18.596Z,20.50
2023-04-14T06:46:04.706Z,16.80
2023-04-14T07:36:32.965Z,10.87
2023-04-14T08:02:19.447Z,10.13
2023-04-14T08:52:42.869Z,7.30
2023-04-14T09:13:19.722Z,7.87
2023-04-14T09:33:26.709Z,9.80
2023-04-14T09:58:26.851Z,10.20
2023-04-14T10:19:03.175Z,7.40
2023-04-14T10:54:54.417Z,6.70
2023-04-14T11:20:17.892Z,5.10
2023-04-14T11:24:37.055Z,6.13
2023-04-14T11:45:24.587Z,5.00
2023-04-14T12:10:47.132Z,4.23
2023-04-14T12:46:31.391Z,2.53
2023-04-14T13:16:21.024Z,4.07
2023-04-14T13:42:15.866Z,3.60
2023-04-14T14:01:59.938Z,3.47
2023-04-14T14:33:02.663Z,2.73
2023-04-14T14:58:08.519Z,4.37
2023-04-14T15:18:35.812Z,2.93
2023-04-14T15:48:51.815Z,6.63
2023-04-14T16:09:22.581Z,9.23
2023-04-14T16:39:14.895Z,6.83
2023-04-14T17:05:16.230Z,4.43
2023-04-14T17:25:08.112Z,6.57
2023-04-14T17:45:37.397Z,7.50
2023-04-14T18:36:22.988Z,7.83
2023-04-14T19:06:49.746Z,7.07
2023-04-14T19:37:28.847Z,10.80
2023-04-14T19:41:48.766Z,9.37
2023-04-14T20:02:36.508Z,8.83
2023-04-14T20:23:01.686Z,8.97
2023-04-14T20:48:15.528Z,8.97
2023-04-14T21:48:39.205Z,8.43
2023-04-14T22:09:16.932Z,11.37
2023-04-14T22:34:40.922Z,12.50
2023-04-14T23:00:17.311Z,11.10
2023-04-14T23:30:06.676Z,9.80
2023-04-14T23:55:24.932Z,11.40
